Aérodrome :
LOGIN :

S'inscrire | Disclaimer

   EN    FR    IT 

 










Légende :    VFR   VFR Marginal   IFR   IFR Intensif   IFR Très Intensif
Visi : 
Plafond : 
>= 8 km
>= 3000ft
5 à 8 km
1000 à 3000 ft
1500m à 5 km
500 à 1000 ft
800 à 1500m
200 à 500 ft
< 800m
< 200 ft
Symboles :   Orages  Brouillard  Fortes neiges  Fortes précipitations  Vent > 20 kt
SIGMETs :   Divers  Orages  Givrage  Turbulence  Onde Orograph.  Cendres Volcan.






- Altitude de l'aérodrome : 74 ft
- Code IATA : NDZ


ETMN - Cuxhaven Nordholz Sea AB

DERNIER METAR :
  • 211420Z 26005KT 5000 BR FEW006 BKN016 14/13 Q1016 WHT WHT TEMPO GRN

METARs EXPIRÉS :
  • 211320Z 18003KT 2800 BR BKN004 13/13 Q1016 YLO YLO BECMG GRN
  • 211250Z 20003KT 3200 BR OVC003 13/13 Q1016 YLO AMB BECMG GRN
  • 211220Z 17004KT 2000 BR OVC002 13/12 Q1016 AMB AMB TEMPO RED
  • 211209Z 16005KT 1200 R08/2300N -DZ BR OVC001 13/12 Q1016 RED AMB TEMPO RED

TAF AMD TAF ETMN
Valide du 21 à 14h jusqu'au 21 à 23h UTC


211423Z 2114/2123 20005KT 8000 NSW SCT010 BKN045
PROB30 2117/2123 21007KT 3500 BR SCT005 SCT010



MET'MAP, la Météo Aéronautique d'un coup d'oeil ! - Copyright ORBIFLY Décembre 2007 - Disclaimer

ORBIFLY MET'MAP TEAM :

Programmation & Développement : Alexandra Zaïnal
Conception & Développement : Baudouin d'Aumeries
Co-Programmation & Développement : Marc-Olivier Méhu
Soutien technique & logistique : Manuel Goepfert

Contact : metmap@orbifly.com




SOURCES & CREDITS :

   NOAA